SBVT Airport Information

Runway Information
Runway 5 Length 5741 ft width 148 ft
Elevation 0 ft Threshold 0 ft Heading 0
Runway 23 Length 5741 ft Width 148 ft
Elevation 0 ft Threshold 0 ft Heading 0
Airport Frequencies
Type APP Name VITORIA AP Frequency 119.85 MHZ
Type ATIS Name VITORIA AT Frequency 127.575 MHZ
Type TWR Name VITORIA TW Frequency 118.1 MHZ
Airport Navaids
Type VOR-DME Name Vitoria Frequency 115500 KHZ
Type NDB Name Vitoria Frequency 350 KHZ
Airport Weather Information & NOTAM
ADDS - METARS form results

(2239 UTC 20 June 2018)
 
METAR text: SBVT 202200Z 05005KT 9999 FEW015 22/20 Q1023
Conditions at: SBVT (VITORIA/GOIABEIR, BR) observed 2200 UTC 20 June 2018
Temperature: 22.0°C (72°F)
Dewpoint: 20.0°C (68°F) [RH = 88%]
Pressure (altimeter): 30.21 inches Hg (1023.0 mb)
Winds: from the NE (50 degrees) at 6 MPH (5 knots; 2.6 m/s)
Visibility: 6 or more miles (10+ km)
Ceiling: at least 12,000 feet AGL
Clouds: few clouds at 1500 feet AGL
Weather: no significant weather observed at this time